Time;durP1;ratioP1;P1;durP2;ratioP2;P2;SDS_P1;SDS_P2;PMS_P1;PMS_P2;Temp;Humidity;BMP_temperature;BMP_pressure;BME280_temperature;BME280_humidity;BME280_pressure;Samples;Min_cycle;Max_cycle;Signal;HPM_P1;HPM_P2
2024/01/01 00:00:24;;;;;;;4.63;1.50;;;;;;;4.03;100.00;92242.88;2044372;28;20039;-80
2024/01/01 00:01:25;;;;;;;4.45;1.58;;;;;;;4.07;100.00;92248.13;2049837;28;20984;-81
2024/01/01 00:02:26;;;;;;;6.68;1.70;;;;;;;4.16;100.00;92239.72;2066507;28;20043;-80
2024/01/01 00:03:26;;;;;;;11.38;1.75;;;;;;;4.10;100.00;92243.94;2070884;28;20035;-78
2024/01/01 00:04:29;;;;;;;5.05;1.30;;;;;;;3.95;100.00;92236.19;2092216;27;20039;-80
2024/01/01 00:05:30;;;;;;;4.28;1.02;;;;;;;3.99;100.00;92236.88;2090649;28;20760;-82
2024/01/01 00:06:31;;;;;;;4.43;1.40;;;;;;;4.12;100.00;92239.75;2107226;28;20028;-82
2024/01/01 00:07:32;;;;;;;7.00;1.70;;;;;;;4.12;100.00;92242.38;2089661;28;20032;-79
2024/01/01 00:08:33;;;;;;;4.68;1.50;;;;;;;4.10;100.00;92234.13;2092596;28;20060;-82
2024/01/01 00:09:34;;;;;;;4.45;1.42;;;;;;;4.24;100.00;92222.63;2097869;28;20024;-81
2024/01/01 00:10:35;;;;;;;8.90;1.15;;;;;;;4.16;100.00;92237.06;2102079;28;20028;-80
2024/01/01 00:11:37;;;;;;;5.70;1.30;;;;;;;4.20;100.00;92232.47;2092786;28;20036;-80
2024/01/01 00:12:38;;;;;;;5.28;1.35;;;;;;;4.15;100.00;92232.94;2099430;28;20119;-79
2024/01/01 00:13:39;;;;;;;5.53;1.50;;;;;;;4.08;100.00;92238.28;2102054;28;20040;-78
2024/01/01 00:14:39;;;;;;;9.48;1.50;;;;;;;4.18;100.00;92235.53;2101124;28;20036;-83
2024/01/01 00:15:40;;;;;;;9.27;1.35;;;;;;;4.24;100.00;92220.72;2109428;28;20480;-80
2024/01/01 00:16:41;;;;;;;9.70;1.65;;;;;;;4.31;100.00;92222.53;2110003;28;20012;-83
2024/01/01 00:17:42;;;;;;;10.80;2.13;;;;;;;4.28;100.00;92226.72;2104888;28;20362;-82
2024/01/01 00:18:44;;;;;;;4.72;1.58;;;;;;;4.20;100.00;92216.63;2096527;28;20028;-81
2024/01/01 00:19:44;;;;;;;6.50;2.20;;;;;;;4.12;100.00;92236.34;2099399;28;20027;-81
2024/01/01 00:20:45;;;;;;;7.30;2.22;;;;;;;4.07;100.00;92223.56;2109083;28;20042;-81
2024/01/01 00:21:46;;;;;;;6.57;1.63;;;;;;;4.38;100.00;92219.78;2108298;28;20575;-79
2024/01/01 00:22:49;;;;;;;7.07;1.90;;;;;;;4.47;100.00;92225.31;2102090;28;20016;-80
2024/01/01 00:23:50;;;;;;;6.97;1.50;;;;;;;4.44;100.00;92223.50;2091326;28;20094;-78
2024/01/01 00:24:51;;;;;;;6.80;1.90;;;;;;;4.34;100.00;92234.19;2103213;28;20504;-79
2024/01/01 00:25:52;;;;;;;10.43;1.65;;;;;;;4.33;100.00;92222.13;2113763;28;20471;-78
2024/01/01 00:26:53;;;;;;;12.63;2.45;;;;;;;4.18;100.00;92227.59;2102073;28;20039;-83
2024/01/01 00:27:54;;;;;;;6.03;2.00;;;;;;;3.95;100.00;92222.19;2099708;28;20030;-81
2024/01/01 00:28:55;;;;;;;8.60;2.17;;;;;;;3.97;100.00;92220.66;2112615;28;20046;-80
2024/01/01 00:29:56;;;;;;;10.20;2.10;;;;;;;3.87;100.00;92220.78;2112421;28;20796;-79
2024/01/01 00:30:56;;;;;;;5.47;2.28;;;;;;;3.95;100.00;92215.03;2100421;28;20032;-80
2024/01/01 00:31:57;;;;;;;5.25;1.73;;;;;;;4.20;100.00;92227.94;2103042;28;20098;-80
2024/01/01 00:32:58;;;;;;;5.68;1.75;;;;;;;4.32;100.00;92220.63;2121144;27;20458;-80
2024/01/01 00:33:59;;;;;;;4.60;1.48;;;;;;;4.22;100.00;92219.63;2112792;27;20027;-80
2024/01/01 00:35:00;;;;;;;5.10;1.40;;;;;;;4.17;100.00;92217.41;2112081;28;20055;-79
2024/01/01 00:36:01;;;;;;;4.82;1.60;;;;;;;4.11;100.00;92217.09;2102663;28;20376;-79
2024/01/01 00:37:04;;;;;;;8.57;1.63;;;;;;;4.10;100.00;92225.44;2093174;28;20024;-80
2024/01/01 00:38:05;;;;;;;7.82;1.95;;;;;;;4.11;100.00;92225.03;2094004;28;20024;-83
2024/01/01 00:39:06;;;;;;;5.38;1.42;;;;;;;4.17;100.00;92217.41;2096709;28;20374;-79
2024/01/01 00:40:08;;;;;;;11.50;1.90;;;;;;;4.05;100.00;92218.69;2096338;28;20032;-80
2024/01/01 00:41:14;;;;;;;4.20;1.75;;;;;;;4.01;100.00;92210.78;2089993;28;20036;-79
2024/01/01 00:42:15;;;;;;;6.82;1.70;;;;;;;3.90;100.00;92209.41;2109206;28;20538;-79
2024/01/01 00:43:16;;;;;;;7.97;1.48;;;;;;;4.01;100.00;92212.69;2099449;28;20085;-82
2024/01/01 00:44:17;;;;;;;5.18;1.45;;;;;;;4.03;100.00;92208.50;2087476;28;20071;-79
2024/01/01 00:45:18;;;;;;;6.93;1.67;;;;;;;4.15;100.00;92198.53;2091841;28;20063;-81
2024/01/01 00:46:19;;;;;;;7.15;1.52;;;;;;;4.05;100.00;92202.81;2096862;28;20139;-81
2024/01/01 00:47:20;;;;;;;8.20;1.38;;;;;;;4.00;100.00;92208.56;2100851;28;20031;-80
2024/01/01 00:48:21;;;;;;;5.53;1.50;;;;;;;4.08;100.00;92207.31;2100867;28;20036;-80
2024/01/01 00:49:22;;;;;;;2.90;1.30;;;;;;;4.17;100.00;92206.81;2109607;28;20476;-79
2024/01/01 00:50:22;;;;;;;6.65;2.35;;;;;;;4.13;100.00;92211.44;2109624;28;20020;-81
2024/01/01 00:51:23;;;;;;;7.90;1.23;;;;;;;4.22;100.00;92207.16;2109211;28;20104;-80
2024/01/01 00:52:24;;;;;;;4.22;1.42;;;;;;;4.10;100.00;92215.59;2100218;28;20052;-81
2024/01/01 00:53:25;;;;;;;6.32;1.40;;;;;;;4.21;100.00;92207.53;2101566;28;20036;-81
2024/01/01 00:54:28;;;;;;;9.73;1.50;;;;;;;4.22;100.00;92209.03;2104409;28;20491;-82
2024/01/01 00:55:31;;;;;;;5.50;1.48;;;;;;;4.33;100.00;92207.00;2103301;28;20038;-81
2024/01/01 00:56:32;;;;;;;6.80;1.63;;;;;;;4.27;100.00;92209.34;2109697;28;20051;-79
2024/01/01 00:57:33;;;;;;;3.40;1.27;;;;;;;4.27;100.00;92212.00;2102991;28;20015;-81
2024/01/01 00:58:34;;;;;;;4.88;1.10;;;;;;;4.31;100.00;92219.88;2094483;28;20432;-79
2024/01/01 00:59:35;;;;;;;5.03;1.20;;;;;;;4.45;100.00;92211.75;2099241;28;20029;-78
2024/01/01 01:00:35;;;;;;;9.25;1.60;;;;;;;4.40;100.00;92214.09;2110453;28;20090;-79
2024/01/01 01:01:37;;;;;;;4.22;1.30;;;;;;;4.35;100.00;92210.00;2114730;28;20031;-81
2024/01/01 01:02:38;;;;;;;9.27;1.60;;;;;;;4.29;100.00;92211.59;2112694;28;20527;-80
2024/01/01 01:03:39;;;;;;;6.35;1.48;;;;;;;4.23;100.00;92215.84;2113254;28;20023;-81
2024/01/01 01:04:45;;;;;;;3.08;0.95;;;;;;;4.51;100.00;92218.09;2108680;28;20023;-82
2024/01/01 01:05:46;;;;;;;6.20;1.15;;;;;;;4.51;100.00;92222.63;2096577;28;20036;-80
2024/01/01 01:06:46;;;;;;;7.63;1.50;;;;;;;4.43;100.00;92221.22;2097448;28;20035;-80
2024/01/01 01:07:48;;;;;;;6.78;1.30;;;;;;;4.39;100.00;92217.88;2104108;28;20074;-80
2024/01/01 01:08:48;;;;;;;7.03;1.27;;;;;;;4.44;100.00;92225.41;2103993;28;20446;-81
2024/01/01 01:09:49;;;;;;;5.97;1.38;;;;;;;4.49;100.00;92219.66;2108372;28;20035;-78
2024/01/01 01:10:50;;;;;;;3.72;1.00;;;;;;;4.70;100.00;92213.31;2101896;28;20475;-79
2024/01/01 01:11:51;;;;;;;9.10;1.20;;;;;;;4.70;100.00;92223.91;2108851;28;20056;-81
2024/01/01 01:12:53;;;;;;;5.18;1.27;;;;;;;4.67;100.00;92222.06;2112830;28;20027;-81
2024/01/01 01:13:56;;;;;;;5.07;1.13;;;;;;;4.47;100.00;92227.97;2114329;28;20066;-81
2024/01/01 01:14:58;;;;;;;6.85;1.00;;;;;;;4.72;100.00;92225.00;2112152;28;20132;-78
2024/01/01 01:15:58;;;;;;;4.25;0.90;;;;;;;4.64;100.00;92217.53;2104765;28;20030;-79
2024/01/01 01:16:59;;;;;;;5.68;0.93;;;;;;;4.73;100.00;92212.50;2117168;27;20034;-79
2024/01/01 01:18:00;;;;;;;4.25;0.90;;;;;;;4.84;100.00;92234.28;2117374;27;20140;-78
2024/01/01 01:19:02;;;;;;;7.60;1.00;;;;;;;4.83;100.00;92227.50;2107650;28;20047;-83
2024/01/01 01:20:05;;;;;;;4.75;1.02;;;;;;;4.89;100.00;92225.88;2108609;28;20027;-81
2024/01/01 01:21:06;;;;;;;4.68;1.10;;;;;;;4.90;100.00;92223.97;2099501;28;20126;-80
2024/01/01 01:22:07;;;;;;;4.90;1.00;;;;;;;4.91;100.00;92226.22;2092226;28;20110;-78
2024/01/01 01:23:08;;;;;;;6.90;1.52;;;;;;;4.88;100.00;92229.69;2109520;28;20028;-82
2024/01/01 01:24:11;;;;;;;9.15;0.90;;;;;;;4.80;100.00;92228.28;2103568;28;20028;-82
2024/01/01 01:25:12;;;;;;;4.57;1.10;;;;;;;4.82;100.00;92230.53;2113810;27;20055;-81
2024/01/01 01:26:13;;;;;;;3.95;1.08;;;;;;;4.69;100.00;92228.44;2120037;27;20046;-81
2024/01/01 01:27:14;;;;;;;3.90;0.80;;;;;;;4.62;100.00;92222.50;2103759;28;20036;-81
2024/01/01 01:28:22;;;;;;;10.80;1.20;;;;;;;4.50;100.00;92237.03;2092133;28;20063;-79
2024/01/01 01:29:24;;;;;;;4.50;0.98;;;;;;;4.47;100.00;92235.16;2112152;28;20491;-79
2024/01/01 01:30:25;;;;;;;7.25;1.23;;;;;;;4.53;100.00;92231.69;2113410;28;20137;-80
2024/01/01 01:31:26;;;;;;;4.75;1.25;;;;;;;4.61;100.00;92235.00;2105849;28;20031;-78
2024/01/01 01:32:27;;;;;;;6.93;1.30;;;;;;;4.62;100.00;92244.41;2100735;28;20041;-82
2024/01/01 01:33:28;;;;;;;3.45;1.13;;;;;;;4.68;100.00;92242.81;2111826;28;20028;-78
2024/01/01 01:34:29;;;;;;;5.63;1.38;;;;;;;4.65;100.00;92240.22;2114123;28;20020;-84
2024/01/01 01:35:30;;;;;;;3.83;0.82;;;;;;;4.65;100.00;92232.28;2113245;28;20023;-77
2024/01/01 01:36:31;;;;;;;4.38;0.77;;;;;;;4.63;100.00;92235.31;2103368;28;20028;-81
2024/01/01 01:37:32;;;;;;;1.80;0.60;;;;;;;4.52;100.00;92232.06;2109727;28;20050;-79
2024/01/01 01:38:35;;;;;;;5.13;1.27;;;;;;;4.50;100.00;92235.13;2108123;28;20032;-78
2024/01/01 01:39:36;;;;;;;4.18;0.60;;;;;;;4.45;100.00;92246.16;2108573;28;20066;-80
2024/01/01 01:40:37;;;;;;;4.43;1.15;;;;;;;4.88;100.00;92248.22;2105210;28;20027;-80
2024/01/01 01:41:38;;;;;;;2.38;0.88;;;;;;;4.65;100.00;92240.97;2099644;28;20083;-77
2024/01/01 01:42:39;;;;;;;3.38;0.82;;;;;;;4.51;100.00;92238.50;2099907;28;20501;-82
2024/01/01 01:43:40;;;;;;;2.42;0.90;;;;;;;4.39;100.00;92236.41;2106841;28;20031;-80
2024/01/01 01:44:41;;;;;;;3.83;0.90;;;;;;;4.45;100.00;92232.94;2103193;28;20032;-83
2024/01/01 01:45:42;;;;;;;3.58;1.00;;;;;;;4.48;100.00;92226.84;2091285;28;20043;-81
2024/01/01 01:46:43;;;;;;;2.75;0.80;;;;;;;4.46;100.00;92231.78;2096448;28;20111;-76
2024/01/01 01:47:45;;;;;;;2.30;0.80;;;;;;;4.37;100.00;92226.22;2100550;28;20118;-80
2024/01/01 01:48:46;;;;;;;3.42;0.70;;;;;;;4.42;100.00;92231.06;2108795;28;20480;-81
2024/01/01 01:49:47;;;;;;;1.25;0.57;;;;;;;4.42;100.00;92225.78;2109806;28;20031;-80
2024/01/01 01:50:50;;;;;;;3.30;0.80;;;;;;;4.68;100.00;92226.19;2100441;28;20020;-82
2024/01/01 01:51:52;;;;;;;2.65;0.65;;;;;;;4.60;100.00;92233.47;2108622;28;20035;-78
2024/01/01 01:52:53;;;;;;;3.10;0.93;;;;;;;4.94;100.00;92235.28;2109139;28;20403;-80
2024/01/01 01:53:55;;;;;;;3.60;1.00;;;;;;;4.75;100.00;92226.09;2108696;28;20031;-79
2024/01/01 01:54:56;;;;;;;3.63;1.00;;;;;;;4.66;100.00;92223.94;2110578;28;20538;-77
2024/01/01 01:56:02;;;;;;;2.97;0.93;;;;;;;4.57;100.00;92229.00;2109244;28;20024;-82
2024/01/01 01:57:06;;;;;;;3.95;1.00;;;;;;;4.65;100.00;92235.66;2110806;28;20083;-80
2024/01/01 01:58:08;;;;;;;2.47;0.73;;;;;;;4.66;100.00;92236.44;2112410;28;20069;-79
2024/01/01 01:59:10;;;;;;;5.95;0.77;;;;;;;4.58;100.00;92241.06;2111684;28;20041;-80
2024/01/01 02:00:11;;;;;;;2.10;0.65;;;;;;;4.46;100.00;92239.72;2110750;28;20028;-83
2024/01/01 02:01:13;;;;;;;3.75;0.80;;;;;;;4.42;100.00;92240.91;2109244;28;20031;-80
2024/01/01 02:02:15;;;;;;;2.42;0.60;;;;;;;4.45;100.00;92237.47;2113582;28;20026;-79
2024/01/01 02:03:16;;;;;;;2.75;0.75;;;;;;;4.57;100.00;92244.13;2100448;28;20032;-79
2024/01/01 02:04:17;;;;;;;3.67;0.90;;;;;;;4.61;100.00;92250.88;2108215;28;20460;-82
2024/01/01 02:05:18;;;;;;;2.15;0.80;;;;;;;4.54;100.00;92235.81;2110112;28;20023;-79
2024/01/01 02:06:21;;;;;;;2.47;0.52;;;;;;;4.52;100.00;92240.78;2110146;28;20097;-78
2024/01/01 02:07:22;;;;;;;3.58;0.90;;;;;;;4.57;100.00;92236.94;2098371;28;20056;-76
2024/01/01 02:08:23;;;;;;;4.55;0.90;;;;;;;4.48;100.00;92234.78;2092283;28;20028;-77
2024/01/01 02:09:24;;;;;;;1.48;0.50;;;;;;;4.40;100.00;92235.28;2107431;28;20431;-79
2024/01/01 02:10:26;;;;;;;5.90;0.85;;;;;;;4.33;100.00;92230.81;2110233;28;20031;-82
2024/01/01 02:11:27;;;;;;;2.47;0.60;;;;;;;4.44;100.00;92236.72;2107718;28;20412;-77
2024/01/01 02:12:28;;;;;;;1.58;0.50;;;;;;;4.32;100.00;92234.59;2099967;28;20110;-83
2024/01/01 02:13:30;;;;;;;4.53;0.90;;;;;;;4.28;100.00;92239.94;2098569;28;20098;-81
2024/01/01 02:14:31;;;;;;;6.72;1.27;;;;;;;4.36;100.00;92245.91;2100424;28;20024;-81
2024/01/01 02:15:32;;;;;;;1.90;0.60;;;;;;;4.20;100.00;92230.59;2108562;28;20035;-81
2024/01/01 02:16:33;;;;;;;4.22;0.70;;;;;;;4.11;100.00;92237.50;2099494;28;20021;-79
2024/01/01 02:17:34;;;;;;;3.10;0.75;;;;;;;4.07;100.00;92234.16;2108464;28;20032;-78
2024/01/01 02:18:34;;;;;;;2.55;0.50;;;;;;;4.17;100.00;92233.28;2099770;28;20028;-80
2024/01/01 02:19:35;;;;;;;2.60;0.70;;;;;;;3.97;100.00;92239.16;2098883;28;20468;-79
2024/01/01 02:20:36;;;;;;;1.52;0.60;;;;;;;3.91;100.00;92232.81;2108225;28;20944;-80
2024/01/01 02:21:37;;;;;;;4.88;0.85;;;;;;;3.85;100.00;92229.09;2107300;28;20039;-79
2024/01/01 02:22:39;;;;;;;4.55;1.10;;;;;;;3.84;100.00;92234.78;2101103;28;21034;-81
2024/01/01 02:25:22;;;;;;;;;;;;;;;2.97;100.00;92232.19;2142254;27;20118;-81
2024/01/01 02:26:24;;;;;;;1.60;0.40;;;;;;;2.88;100.00;92239.78;2129149;27;19998;-79
2024/01/01 02:27:25;;;;;;;3.60;0.55;;;;;;;2.69;100.00;92240.31;2119440;28;20019;-84
2024/01/01 02:28:26;;;;;;;4.07;0.60;;;;;;;2.69;100.00;92240.31;2128401;27;20023;-83
2024/01/01 02:29:27;;;;;;;1.67;0.55;;;;;;;2.71;100.00;92232.75;2128681;27;20039;-80
2024/01/01 02:30:28;;;;;;;1.73;0.43;;;;;;;2.59;100.00;92230.56;2118262;28;20057;-80
2024/01/01 02:31:29;;;;;;;2.50;0.60;;;;;;;2.61;100.00;92239.59;2102010;28;20518;-81
2024/01/01 02:32:30;;;;;;;4.03;0.75;;;;;;;3.09;100.00;92246.06;2111010;27;20028;-83
2024/01/01 02:33:31;;;;;;;3.33;0.60;;;;;;;2.96;100.00;92233.31;2127535;27;20125;-84
2024/01/01 02:34:32;;;;;;;3.65;0.60;;;;;;;3.29;100.00;92233.81;2129551;27;20037;-81
2024/01/01 02:35:33;;;;;;;1.35;0.50;;;;;;;3.15;100.00;92239.97;2112328;28;20138;-80
2024/01/01 02:36:36;;;;;;;1.15;0.60;;;;;;;2.97;100.00;92240.09;2105336;28;20040;-83
2024/01/01 02:37:37;;;;;;;4.40;0.70;;;;;;;2.92;100.00;92255.59;2109348;28;20028;-80
2024/01/01 02:38:38;;;;;;;0.73;0.50;;;;;;;3.11;100.00;92262.25;2117312;28;20624;-82
2024/01/01 02:39:39;;;;;;;1.63;0.63;;;;;;;3.25;100.00;92259.50;2127209;27;20787;-81
2024/01/01 02:40:40;;;;;;;2.42;0.70;;;;;;;3.10;100.00;92252.84;2120097;28;20038;-80
2024/01/01 02:41:43;;;;;;;2.35;0.60;;;;;;;3.09;100.00;92251.34;2120272;27;20026;-82
2024/01/01 02:42:44;;;;;;;2.60;0.68;;;;;;;3.03;100.00;92253.66;2115498;28;20717;-81
2024/01/01 02:43:44;;;;;;;4.10;0.70;;;;;;;2.95;100.00;92252.94;2114519;28;20031;-79
2024/01/01 02:44:45;;;;;;;2.17;0.60;;;;;;;2.90;100.00;92244.69;2107426;28;20501;-81
2024/01/01 02:45:46;;;;;;;2.90;0.60;;;;;;;2.94;100.00;92246.16;2114513;28;20031;-80
2024/01/01 02:46:47;;;;;;;1.90;0.82;;;;;;;3.00;100.00;92246.50;2116794;28;20452;-80
2024/01/01 02:47:48;;;;;;;3.58;0.70;;;;;;;2.93;100.00;92255.22;2115956;27;20118;-79
2024/01/01 02:48:49;;;;;;;2.70;0.65;;;;;;;2.80;100.00;92251.53;2119948;28;20483;-81
2024/01/01 02:49:50;;;;;;;2.25;0.73;;;;;;;2.69;100.00;92242.94;2112820;28;20027;-79
2024/01/01 02:50:51;;;;;;;1.60;0.70;;;;;;;2.68;100.00;92252.00;2111563;28;20020;-81
2024/01/01 02:51:52;;;;;;;3.80;1.20;;;;;;;2.76;100.00;92256.06;2111237;28;20035;-84
2024/01/01 02:52:53;;;;;;;2.47;0.82;;;;;;;2.63;100.00;92245.22;2116212;27;20020;-79
2024/01/01 02:53:56;;;;;;;1.27;0.50;;;;;;;2.84;100.00;92260.19;2127170;27;20408;-81
2024/01/01 02:54:57;;;;;;;2.67;0.63;;;;;;;3.04;100.00;92247.22;2118845;27;20088;-82
2024/01/01 02:55:58;;;;;;;3.67;0.60;;;;;;;2.81;100.00;92252.28;2119327;28;20068;-84
2024/01/01 02:56:58;;;;;;;2.13;0.47;;;;;;;3.01;100.00;92253.28;2118377;28;20015;-82
2024/01/01 02:58:02;;;;;;;2.85;0.50;;;;;;;2.97;100.00;92257.81;2127728;27;20596;-81
2024/01/01 02:59:03;;;;;;;2.28;0.63;;;;;;;3.06;100.00;92252.84;2116175;28;20158;-81
2024/01/01 03:00:08;;;;;;;1.98;0.50;;;;;;;3.06;100.00;92260.78;2109314;28;20027;-79
2024/01/01 03:01:09;;;;;;;1.45;0.50;;;;;;;3.09;100.00;92262.66;2119160;27;20031;-79
2024/01/01 03:02:12;;;;;;;5.28;0.80;;;;;;;3.00;100.00;92268.38;2117668;28;20032;-79
2024/01/01 03:03:13;;;;;;;2.47;0.50;;;;;;;2.99;100.00;92264.22;2110523;28;20150;-78
2024/01/01 03:04:13;;;;;;;3.03;0.65;;;;;;;3.16;100.00;92259.19;2111286;28;20016;-81
2024/01/01 03:05:15;;;;;;;2.75;0.65;;;;;;;3.00;100.00;92251.78;2118824;28;20050;-81
2024/01/01 03:06:19;;;;;;;3.13;0.80;;;;;;;2.77;100.00;92261.00;2119944;27;20068;-82
2024/01/01 03:07:20;;;;;;;2.28;0.43;;;;;;;3.02;100.00;92262.69;2114328;27;20380;-82
2024/01/01 03:08:21;;;;;;;2.05;0.63;;;;;;;2.82;100.00;92257.19;2119124;28;20031;-81
2024/01/01 03:09:22;;;;;;;2.22;0.70;;;;;;;2.73;100.00;92260.25;2123787;27;20671;-81
2024/01/01 03:10:23;;;;;;;3.00;0.50;;;;;;;2.73;100.00;92262.91;2128993;27;20022;-79
2024/01/01 03:11:27;;;;;;;7.25;1.23;;;;;;;2.68;100.00;92265.19;2128923;27;20027;-81
2024/01/01 03:12:28;;;;;;;1.92;0.82;;;;;;;2.50;100.00;92271.31;2120142;27;20129;-79
2024/01/01 03:13:29;;;;;;;4.85;0.80;;;;;;;2.61;100.00;92265.97;2127660;27;20022;-80
2024/01/01 03:14:30;;;;;;;3.53;0.80;;;;;;;2.58;100.00;92250.16;2129346;27;20026;-82
2024/01/01 03:15:31;;;;;;;2.38;0.88;;;;;;;2.60;100.00;92258.47;2117219;28;20023;-79
2024/01/01 03:16:32;;;;;;;2.53;0.40;;;;;;;2.74;100.00;92261.75;2111374;27;20039;-83
2024/01/01 03:17:33;;;;;;;2.55;0.40;;;;;;;2.92;100.00;92268.81;2128403;27;20015;-79
2024/01/01 03:18:34;;;;;;;3.35;0.60;;;;;;;2.77;100.00;92273.44;2136323;27;20026;-80
2024/01/01 03:19:35;;;;;;;4.03;0.75;;;;;;;2.76;100.00;92269.28;2131931;27;20126;-80
2024/01/01 03:20:37;;;;;;;3.42;0.70;;;;;;;2.81;100.00;92278.66;2134085;27;20660;-81
2024/01/01 03:21:38;;;;;;;2.60;0.63;;;;;;;2.78;100.00;92277.56;2129885;27;20027;-80
2024/01/01 03:22:39;;;;;;;5.78;0.88;;;;;;;2.70;100.00;92271.56;2134912;27;20379;-82
2024/01/01 03:23:42;;;;;;;1.38;1.02;;;;;;;2.82;100.00;92272.28;2129000;27;20035;-80
2024/01/01 03:24:43;;;;;;;2.42;0.60;;;;;;;2.82;100.00;92273.03;2117565;27;20075;-79
2024/01/01 03:25:44;;;;;;;3.58;0.90;;;;;;;2.72;100.00;92273.81;2111277;27;20073;-79
2024/01/01 03:26:45;;;;;;;4.70;1.00;;;;;;;2.66;100.00;92270.84;2115913;28;20063;-81
2024/01/01 03:27:46;;;;;;;2.83;0.60;;;;;;;2.59;100.00;92270.91;2114718;28;20758;-81
2024/01/01 03:28:47;;;;;;;3.75;0.65;;;;;;;2.58;100.00;92274.66;2112453;28;20028;-82
2024/01/01 03:29:49;;;;;;;2.92;0.50;;;;;;;2.66;100.00;92270.84;2122462;27;20027;-81
2024/01/01 03:30:50;;;;;;;1.85;0.60;;;;;;;2.68;100.00;92279.13;2122347;27;20523;-82
2024/01/01 03:31:51;;;;;;;1.88;0.60;;;;;;;2.62;100.00;92269.38;2130947;27;20125;-80
2024/01/01 03:32:52;;;;;;;1.60;0.60;;;;;;;2.85;100.00;92272.22;2119040;27;20024;-80
2024/01/01 03:33:53;;;;;;;3.75;0.80;;;;;;;2.89;100.00;92272.97;2109373;28;20027;-83
2024/01/01 03:34:53;;;;;;;3.25;0.98;;;;;;;3.03;100.00;92280.06;2112752;28;20027;-81
2024/01/01 03:35:54;;;;;;;4.28;0.60;;;;;;;2.90;100.00;92274.47;2115685;28;20031;-78
2024/01/01 03:36:55;;;;;;;4.93;0.70;;;;;;;2.70;100.00;92271.56;2120412;27;20076;-79
2024/01/01 03:38:00;;;;;;;3.97;0.82;;;;;;;2.71;100.00;92264.41;2124800;27;20544;-79
2024/01/01 03:39:02;;;;;;;3.65;1.40;;;;;;;2.66;100.00;92272.72;2131015;27;20075;-79
2024/01/01 03:40:03;;;;;;;3.72;0.60;;;;;;;2.59;100.00;92270.91;2130919;27;20023;-80
2024/01/01 03:41:04;;;;;;;1.83;0.73;;;;;;;2.51;100.00;92266.81;2127252;27;20019;-80
2024/01/01 03:42:05;;;;;;;4.72;0.75;;;;;;;2.69;100.00;92267.44;2124931;27;20705;-80
2024/01/01 03:43:06;;;;;;;6.00;0.73;;;;;;;2.85;100.00;92279.41;2125513;27;20050;-80
2024/01/01 03:44:10;;;;;;;3.85;0.50;;;;;;;2.70;100.00;92273.47;2126127;27;20034;-79
2024/01/01 03:45:11;;;;;;;3.10;0.65;;;;;;;2.73;100.00;92264.78;2124590;27;20058;-81
2024/01/01 03:46:12;;;;;;;1.10;0.50;;;;;;;2.78;100.00;92272.28;2114791;27;20029;-80
2024/01/01 03:47:13;;;;;;;3.95;0.75;;;;;;;2.58;100.00;92263.34;2123514;27;20471;-81
2024/01/01 03:48:13;;;;;;;4.25;0.88;;;;;;;2.57;100.00;92267.88;2121679;27;20030;-78
2024/01/01 03:49:14;;;;;;;1.05;0.60;;;;;;;2.64;100.00;92267.09;2109785;28;20054;-78
2024/01/01 03:50:16;;;;;;;5.55;0.88;;;;;;;2.56;100.00;92268.28;2115009;27;20042;-80
2024/01/01 03:51:17;;;;;;;2.35;0.80;;;;;;;2.38;100.00;92271.00;2105593;28;20123;-81
2024/01/01 03:52:18;;;;;;;5.88;0.88;;;;;;;2.46;100.00;92281.13;2100972;28;20024;-79
2024/01/01 03:53:19;;;;;;;5.60;0.77;;;;;;;2.46;100.00;92269.84;2113054;28;20042;-82
2024/01/01 03:54:20;;;;;;;1.60;0.60;;;;;;;2.43;100.00;92267.97;2105465;28;20027;-81
2024/01/01 03:55:21;;;;;;;1.88;0.80;;;;;;;2.26;100.00;92265.03;2103929;28;20051;-79
2024/01/01 03:56:21;;;;;;;4.57;0.70;;;;;;;2.17;100.00;92269.97;2122803;27;20026;-80
2024/01/01 03:57:22;;;;;;;3.17;0.80;;;;;;;2.21;100.00;92269.94;2115437;27;20442;-79
2024/01/01 03:58:23;;;;;;;4.22;1.15;;;;;;;2.37;100.00;92270.25;2126701;27;20022;-81
2024/01/01 03:59:24;;;;;;;5.00;0.82;;;;;;;2.33;100.00;92276.66;2113027;27;20050;-81
2024/01/01 04:00:26;;;;;;;5.75;1.38;;;;;;;2.31;100.00;92269.16;2103715;28;20036;-82
2024/01/01 04:01:27;;;;;;;7.53;0.90;;;;;;;2.22;100.00;92271.44;2109000;28;20024;-82
2024/01/01 04:02:28;;;;;;;5.03;0.90;;;;;;;2.45;100.00;92263.78;2120335;27;20098;-79
2024/01/01 04:03:29;;;;;;;5.28;1.17;;;;;;;2.40;100.00;92269.47;2111627;27;20023;-81
2024/01/01 04:04:32;;;;;;;4.63;0.80;;;;;;;2.34;100.00;92265.75;2106970;27;20587;-80
2024/01/01 04:05:33;;;;;;;5.20;1.00;;;;;;;2.43;100.00;92262.69;2090264;27;20030;-81
2024/01/01 04:06:34;;;;;;;5.43;1.20;;;;;;;2.41;100.00;92270.22;1988388;28;20043;-80
2024/01/01 04:07:35;;;;;;;4.88;0.90;;;;;;;2.30;100.00;92262.38;2021535;28;20036;-78
2024/01/01 04:08:36;;;;;;;6.40;0.90;;;;;;;2.51;100.00;92264.16;2034236;27;20411;-81
2024/01/01 04:09:37;;;;;;;4.47;0.85;;;;;;;2.46;100.00;92262.69;2033384;27;20122;-79
2024/01/01 04:10:38;;;;;;;6.20;0.82;;;;;;;2.45;100.00;92263.03;2020134;28;20115;-82
2024/01/01 04:11:39;;;;;;;7.13;1.40;;;;;;;2.61;100.00;92258.06;2035093;28;20423;-80
2024/01/01 04:12:40;;;;;;;6.40;1.30;;;;;;;2.51;100.00;92257.00;2049534;27;20031;-80
2024/01/01 04:13:42;;;;;;;8.82;1.00;;;;;;;2.58;100.00;92266.00;2048269;27;20033;-79
2024/01/01 04:14:43;;;;;;;6.90;1.00;;;;;;;2.63;100.00;92270.84;2048829;27;20027;-80
2024/01/01 04:15:44;;;;;;;6.57;0.98;;;;;;;2.58;100.00;92266.00;2047330;27;20701;-83
2024/01/01 04:16:44;;;;;;;8.63;1.10;;;;;;;2.52;100.00;92266.41;2043988;27;20042;-81
2024/01/01 04:17:45;;;;;;;5.25;1.10;;;;;;;2.54;100.00;92266.00;2051825;28;20439;-81
2024/01/01 04:18:46;;;;;;;5.68;0.88;;;;;;;2.45;100.00;92270.97;2067515;27;20066;-79
2024/01/01 04:19:47;;;;;;;8.10;1.42;;;;;;;2.45;100.00;92276.22;2094578;27;20034;-80
2024/01/01 04:20:48;;;;;;;8.93;1.13;;;;;;;2.42;100.00;92277.03;2084419;27;20043;-81
2024/01/01 04:21:49;;;;;;;8.05;0.90;;;;;;;2.44;100.00;92280.00;2011119;27;20043;-81
2024/01/01 04:22:51;;;;;;;5.63;1.10;;;;;;;2.47;100.00;92279.25;2033579;27;20034;-79
2024/01/01 04:23:55;;;;;;;2.95;1.35;;;;;;;2.60;100.00;92280.31;2040009;27;20027;-82
2024/01/01 04:24:56;;;;;;;6.63;0.90;;;;;;;2.96;100.00;92283.47;2042446;27;20040;-82
2024/01/01 04:25:57;;;;;;;4.93;1.00;;;;;;;2.80;100.00;92277.16;2042199;27;20056;-81
2024/01/01 04:26:58;;;;;;;5.85;1.17;;;;;;;2.81;100.00;92271.53;2041356;27;20494;-80
2024/01/01 04:27:59;;;;;;;6.53;1.10;;;;;;;2.71;100.00;92281.00;2054356;27;20607;-81
2024/01/01 04:29:00;;;;;;;5.45;0.93;;;;;;;2.81;100.00;92270.75;2050171;28;23765;-78
2024/01/01 04:30:04;;;;;;;7.63;1.17;;;;;;;2.74;100.00;92272.31;2040598;28;20060;-78
2024/01/01 04:31:05;;;;;;;4.07;1.00;;;;;;;2.88;100.00;92278.63;2041848;28;20905;-80
2024/01/01 04:32:06;;;;;;;7.07;1.25;;;;;;;2.95;100.00;92273.31;2066755;27;20934;-78
2024/01/01 04:33:06;;;;;;;6.90;1.10;;;;;;;2.75;100.00;92273.06;2076294;27;20341;-79
2024/01/01 04:34:07;;;;;;;9.80;0.95;;;;;;;2.74;100.00;92268.91;2093618;27;20027;-81
2024/01/01 04:35:09;;;;;;;5.93;0.88;;;;;;;2.64;100.00;92275.78;2099910;27;20035;-80
2024/01/01 04:36:09;;;;;;;6.60;0.93;;;;;;;2.58;100.00;92274.66;2093792;27;20032;-81
2024/01/01 04:37:11;;;;;;;6.78;1.10;;;;;;;2.76;100.00;92274.56;2099571;27;20023;-79
2024/01/01 04:38:12;;;;;;;5.97;0.90;;;;;;;2.66;100.00;92275.38;2109974;27;20466;-79
2024/01/01 04:39:13;;;;;;;4.00;1.00;;;;;;;2.60;100.00;92282.19;2112272;27;20035;-78
2024/01/01 04:40:14;;;;;;;18.10;6.55;;;;;;;2.45;100.00;92282.25;2126693;27;20019;-80
2024/01/01 04:41:15;;;;;;;7.90;2.08;;;;;;;2.56;100.00;92282.22;2123568;27;20034;-79
2024/01/01 04:42:16;;;;;;;4.53;1.00;;;;;;;2.72;100.00;92285.16;2121844;27;20031;-81
2024/01/01 04:43:18;;;;;;;5.43;1.30;;;;;;;2.62;100.00;92290.47;2124471;27;20049;-78
2024/01/01 04:44:19;;;;;;;8.38;1.25;;;;;;;2.64;100.00;92286.31;2119836;27;20034;-80
2024/01/01 04:45:20;;;;;;;11.70;1.60;;;;;;;2.52;100.00;92282.22;2100849;28;20316;-76
2024/01/01 04:46:21;;;;;;;5.63;0.90;;;;;;;2.36;100.00;92292.47;2097100;28;20313;-78
2024/01/01 04:47:22;;;;;;;4.40;1.05;;;;;;;2.51;100.00;92298.44;2105631;28;20040;-80
2024/01/01 04:48:23;;;;;;;6.07;1.00;;;;;;;2.48;100.00;92286.78;2119246;27;20140;-78
2024/01/01 04:49:24;;;;;;;3.53;1.52;;;;;;;2.46;100.00;92288.31;2114443;28;20020;-77
2024/01/01 04:50:25;;;;;;;5.60;1.10;;;;;;;2.47;100.00;92293.19;2122366;27;20030;-79